< < Back
Terminal Aerodrome Forecast


Current Version              Previous Versions:   1  2  3  4  5  6  7  8  9  

Terminal Aerodrome Forecast

604
FTUS44 KBMX 252300
TAFANB
TAF
KANB 252339Z 2600/2624 24008G15KT P6SM BKN090 OVC110
     FM260100 23010KT 6SM SHRA VCTS SCT045CB BKN060 BKN110
     FM260230 29007KT P6SM SCT045 OVC060
      TEMPO 2605/2607 6SM SHRA BKN045 OVC070
     FM261200 28012G18KT P6SM OVC020
     FM262100 28007KT P6SM SKC=

Latest METAR

980
SAUS70 KWBC 260000 RRA
MTRANB
METAR KANB 252353Z AUTO 23005KT 10SM OVC070 14/01 A2975 RMK AO2 SLP079
T01390011 10161 20139 51008


USA.gov is the U.S. government's official web portal to all federal, state and local government web resources and services.